Time,TemperatureF,DewpointF,PressureIn,WindDirection,WindDirectionDegrees,WindSpeedMPH,WindSpeedGustMPH,Humidity,HourlyPrecipIn,Conditions,Clouds,dailyrainin,SoftwareType,DateUTC
2013-08-13 00:00:00,54.0,51.0,30.00,West,278,4.0,7.0,89,0.00,,,0.00,,2013-08-13 08:00:00,
2013-08-13 00:42:00,54.0,51.0,30.00,West,278,4.0,7.0,89,0.00,,,0.00,,2013-08-13 08:42:00,
2013-08-13 00:52:00,54.0,51.0,30.00,West,278,4.0,7.0,89,0.00,,,0.00,,2013-08-13 08:52:00,
2013-08-13 01:00:00,54.0,51.0,29.99,WNW,294,2.0,5.0,90,0.00,,,0.00,,2013-08-13 09:00:00,
2013-08-13 01:43:00,54.0,51.0,29.99,WNW,294,2.0,5.0,90,0.00,,,0.00,,2013-08-13 09:43:00,
2013-08-13 01:53:00,54.0,51.0,29.99,WNW,294,2.0,5.0,90,0.00,,,0.00,,2013-08-13 09:53:00,
2013-08-13 02:00:00,54.0,50.0,29.99,ENE,65,2.0,4.0,87,0.00,,,0.00,,2013-08-13 10:00:00,
2013-08-13 02:43:00,54.0,50.0,29.99,ENE,65,2.0,4.0,87,0.00,,,0.00,,2013-08-13 10:43:00,
2013-08-13 02:52:00,54.0,50.0,29.99,ENE,65,2.0,4.0,87,0.00,,,0.00,,2013-08-13 10:52:00,
2013-08-13 03:00:00,55.0,50.0,29.99,North,354,1.0,4.0,83,0.00,,,0.00,,2013-08-13 11:00:00,
2013-08-13 03:42:00,55.0,50.0,29.99,North,354,1.0,4.0,83,0.00,,,0.00,,2013-08-13 11:42:00,
2013-08-13 03:52:00,55.0,50.0,29.99,North,354,1.0,4.0,83,0.00,,,0.00,,2013-08-13 11:52:00,
2013-08-13 04:00:00,56.0,50.0,29.98,NNW,329,2.0,3.0,81,0.00,,,0.00,,2013-08-13 12:00:00,
2013-08-13 04:42:00,56.0,50.0,29.98,NNW,329,2.0,3.0,81,0.00,,,0.00,,2013-08-13 12:42:00,
2013-08-13 04:52:00,56.0,50.0,29.98,NNW,329,2.0,3.0,81,0.00,,,0.00,,2013-08-13 12:52:00,
2013-08-13 05:00:00,56.0,50.0,29.98,WNW,291,0.0,3.0,81,0.00,,,0.00,,2013-08-13 13:00:00,
2013-08-13 05:42:00,56.0,50.0,29.98,WNW,291,0.0,3.0,81,0.00,,,0.00,,2013-08-13 13:42:00,
2013-08-13 05:52:00,56.0,50.0,29.98,WNW,291,0.0,3.0,81,0.00,,,0.00,,2013-08-13 13:52:00,
2013-08-13 06:00:00,56.0,50.0,29.97,North,355,0.0,3.0,80,0.00,,,0.00,,2013-08-13 14:00:00,
2013-08-13 06:42:00,56.0,50.0,29.97,North,355,0.0,3.0,80,0.00,,,0.00,,2013-08-13 14:42:00,
2013-08-13 06:52:00,56.0,50.0,29.97,North,355,0.0,3.0,80,0.00,,,0.00,,2013-08-13 14:52:00,
2013-08-13 07:00:00,56.0,50.0,29.97,NNE,20,1.0,3.0,81,0.00,,,0.00,,2013-08-13 15:00:00,
2013-08-13 07:44:00,56.0,50.0,29.97,NNE,20,1.0,3.0,81,0.00,,,0.00,,2013-08-13 15:44:00,
2013-08-13 07:54:00,56.0,50.0,29.97,NNE,20,1.0,3.0,81,0.00,,,0.00,,2013-08-13 15:54:00,
2013-08-13 08:00:00,57.0,52.0,29.97,East,80,1.0,3.0,83,0.00,,,0.00,,2013-08-13 16:00:00,
2013-08-13 08:45:00,57.0,52.0,29.97,East,80,1.0,3.0,83,0.00,,,0.00,,2013-08-13 16:45:00,
2013-08-13 08:54:00,57.0,52.0,29.97,East,80,1.0,3.0,83,0.00,,,0.00,,2013-08-13 16:54:00,
2013-08-13 09:00:00,63.0,53.0,29.97,ESE,113,1.0,4.0,70,0.00,,,0.00,,2013-08-13 17:00:00,
2013-08-13 09:46:00,-999.0,-99.9,29.97,ESE,113,1.0,4.0,-999,0.00,,,0.00,,2013-08-13 17:46:00,
2013-08-13 09:56:00,63.0,53.0,29.97,ESE,113,1.0,4.0,70,0.00,,,0.00,,2013-08-13 17:56:00,
2013-08-13 10:00:00,64.0,53.0,29.97,WSW,257,1.0,4.0,68,0.00,,,0.00,,2013-08-13 18:00:00,
2013-08-13 10:44:00,64.0,53.0,29.97,WSW,257,1.0,4.0,68,0.00,,,0.00,,2013-08-13 18:44:00,
2013-08-13 10:56:00,64.0,53.0,29.97,WSW,257,1.0,4.0,68,0.00,,,0.00,,2013-08-13 18:56:00,
2013-08-13 11:00:00,69.0,54.0,29.96,SW,231,1.0,4.0,59,0.00,,,0.00,,2013-08-13 19:00:00,
2013-08-13 11:44:00,69.0,54.0,29.96,SW,231,1.0,4.0,59,0.00,,,0.00,,2013-08-13 19:44:00,
2013-08-13 11:55:00,69.0,54.0,29.96,SW,231,1.0,4.0,59,0.00,,,0.00,,2013-08-13 19:55:00,
2013-08-13 12:00:00,71.0,55.0,29.95,East,99,2.0,6.0,56,0.00,,,0.00,,2013-08-13 20:00:00,
2013-08-13 12:45:00,71.0,55.0,29.95,East,99,2.0,6.0,56,0.00,,,0.00,,2013-08-13 20:45:00,
2013-08-13 12:53:00,71.0,55.0,29.95,East,99,2.0,6.0,56,0.00,,,0.00,,2013-08-13 20:53:00,
2013-08-13 13:00:00,72.0,55.0,29.95,West,265,3.0,8.0,54,0.00,,,0.00,,2013-08-13 21:00:00,
2013-08-13 13:46:00,72.0,55.0,29.95,West,265,3.0,8.0,54,0.00,,,0.00,,2013-08-13 21:46:00,
2013-08-13 13:54:00,72.0,55.0,29.95,West,265,3.0,8.0,54,0.00,,,0.00,,2013-08-13 21:54:00,
2013-08-13 14:00:00,71.0,53.0,29.94,WSW,237,3.0,7.0,53,0.00,,,0.00,,2013-08-13 22:00:00,
2013-08-13 14:50:00,71.0,53.0,29.94,WSW,237,3.0,7.0,53,0.00,,,0.00,,2013-08-13 22:50:00,
2013-08-13 14:56:00,71.0,53.0,29.94,WSW,237,3.0,7.0,53,0.00,,,0.00,,2013-08-13 22:56:00,
2013-08-13 15:00:00,72.0,54.0,29.93,WNW,293,3.0,7.0,53,0.00,,,0.00,,2013-08-13 23:00:00,
2013-08-13 15:47:00,72.0,54.0,29.93,WNW,293,3.0,7.0,53,0.00,,,0.00,,2013-08-13 23:47:00,
2013-08-13 15:57:00,72.0,54.0,29.93,WNW,293,3.0,7.0,53,0.00,,,0.00,,2013-08-13 23:57:00,
2013-08-13 16:00:00,75.0,52.0,29.90,SE,145,1.0,8.0,45,0.00,,,0.00,,2013-08-14 00:00:00,
2013-08-13 16:42:00,75.0,52.0,29.90,SE,145,1.0,8.0,45,0.00,,,0.00,,2013-08-14 00:42:00,
2013-08-13 16:52:00,75.0,52.0,29.90,SE,145,1.0,8.0,45,0.00,,,0.00,,2013-08-14 00:52:00,
2013-08-13 17:00:00,76.0,52.0,29.89,ESE,111,2.0,7.0,43,0.00,,,0.00,,2013-08-14 01:00:00,
2013-08-13 17:42:00,76.0,52.0,29.89,ESE,111,2.0,7.0,43,0.00,,,0.00,,2013-08-14 01:42:00,
2013-08-13 17:52:00,76.0,52.0,29.89,ESE,111,2.0,7.0,43,0.00,,,0.00,,2013-08-14 01:52:00,
2013-08-13 18:00:00,77.0,53.0,29.87,WSW,248,2.0,6.0,43,0.00,,,0.00,,2013-08-14 02:00:00,
2013-08-13 18:42:00,77.0,53.0,29.87,WSW,248,2.0,6.0,43,0.00,,,0.00,,2013-08-14 02:42:00,
2013-08-13 18:52:00,77.0,53.0,29.87,WSW,248,2.0,6.0,43,0.00,,,0.00,,2013-08-14 02:52:00,
2013-08-13 19:00:00,72.0,51.0,29.86,West,266,3.0,8.0,48,0.00,,,0.00,,2013-08-14 03:00:00,
2013-08-13 19:43:00,72.0,51.0,29.86,West,266,3.0,8.0,48,0.00,,,0.00,,2013-08-14 03:43:00,
2013-08-13 19:53:00,72.0,51.0,29.86,West,266,3.0,8.0,48,0.00,,,0.00,,2013-08-14 03:53:00,
2013-08-13 20:00:00,71.0,51.0,29.86,WNW,285,4.0,8.0,50,0.00,,,0.00,,2013-08-14 04:00:00,
2013-08-13 20:42:00,71.0,51.0,29.86,WNW,285,4.0,8.0,50,0.00,,,0.00,,2013-08-14 04:42:00,
2013-08-13 20:52:00,71.0,51.0,29.86,WNW,285,4.0,8.0,50,0.00,,,0.00,,2013-08-14 04:52:00,
2013-08-13 21:00:00,66.0,48.0,29.86,WNW,293,4.0,6.0,53,0.00,,,0.00,,2013-08-14 05:00:00,
2013-08-13 21:42:00,66.0,48.0,29.86,WNW,293,4.0,6.0,53,0.00,,,0.00,,2013-08-14 05:42:00,
2013-08-13 21:52:00,66.0,48.0,29.86,WNW,293,4.0,6.0,53,0.00,,,0.00,,2013-08-14 05:52:00,
2013-08-13 22:00:00,64.0,50.0,29.86,NW,307,2.0,6.0,59,0.00,,,0.00,,2013-08-14 06:00:00,
2013-08-13 22:42:00,64.0,50.0,29.86,NW,307,2.0,6.0,59,0.00,,,0.00,,2013-08-14 06:42:00,
2013-08-13 22:52:00,64.0,50.0,29.86,NW,307,2.0,6.0,59,0.00,,,0.00,,2013-08-14 06:52:00,
2013-08-13 23:00:00,64.0,50.0,29.85,NNE,12,2.0,5.0,61,0.00,,,0.00,,2013-08-14 07:00:00,
2013-08-13 23:42:00,64.0,50.0,29.85,NNE,12,2.0,5.0,61,0.00,,,0.00,,2013-08-14 07:42:00,
2013-08-13 23:52:00,64.0,50.0,29.85,NNE,12,2.0,5.0,61,0.00,,,0.00,,2013-08-14 07:52:00,